Pulleys Mill, Illinois
Current Conditions -  °F | °C
As of 3:46 PM on Saturday 22 Nov 2014 (Local Time) from KMWA Reporting Station
Overcast Overcast  
Wind Chill: 63°   Ceiling: 6500
Heat Index: 63°   Visibility: 20mi
Dew Point: 43°   Wind: 17mph
Humidity: 48%   Direction: 200°SSW
Pressure: 30.03"   Gusts: 35mph
Location:  37.565°N, 88.982°W
Report Text: KMWA 222146Z 20015G30KT 20SM SCT055 BKN065 OVC250 17/06 A3003
Loading
Personal Weather Stations






























Interactive Weather Map New forecast layout! Learn more

10-Day Weather Forecast

Advertisements
Track Severe Weather on mobile